sensor_id;sensor_type;location;lat;lon;timestamp;P1;durP1;ratioP1;P2;durP2;ratioP2
28483;SDS011;15704;48.834;8.736;2022-09-21T00:03:35;15.50;;;8.30;;
28483;SDS011;15704;48.834;8.736;2022-09-21T00:07:19;17.95;;;8.23;;
28483;SDS011;15704;48.834;8.736;2022-09-21T00:11:02;25.27;;;6.30;;
28483;SDS011;15704;48.834;8.736;2022-09-21T00:14:46;12.82;;;5.35;;
28483;SDS011;15704;48.834;8.736;2022-09-21T00:18:29;17.83;;;3.87;;
28483;SDS011;15704;48.834;8.736;2022-09-21T00:22:13;10.40;;;4.27;;
28483;SDS011;15704;48.834;8.736;2022-09-21T00:26:03;7.88;;;3.88;;
28483;SDS011;15704;48.834;8.736;2022-09-21T00:29:47;8.50;;;3.75;;
28483;SDS011;15704;48.834;8.736;2022-09-21T00:33:29;7.50;;;3.83;;
28483;SDS011;15704;48.834;8.736;2022-09-21T00:37:14;7.63;;;4.50;;
28483;SDS011;15704;48.834;8.736;2022-09-21T00:40:56;7.47;;;4.32;;
28483;SDS011;15704;48.834;8.736;2022-09-21T00:44:39;9.17;;;4.57;;
28483;SDS011;15704;48.834;8.736;2022-09-21T00:48:22;12.98;;;5.45;;
28483;SDS011;15704;48.834;8.736;2022-09-21T00:52:05;14.50;;;5.63;;
28483;SDS011;15704;48.834;8.736;2022-09-21T00:55:51;8.88;;;4.28;;
28483;SDS011;15704;48.834;8.736;2022-09-21T00:59:37;10.57;;;5.03;;
28483;SDS011;15704;48.834;8.736;2022-09-21T01:03:21;16.50;;;6.90;;
28483;SDS011;15704;48.834;8.736;2022-09-21T01:07:05;17.67;;;6.53;;
28483;SDS011;15704;48.834;8.736;2022-09-21T01:10:58;19.63;;;7.00;;
28483;SDS011;15704;48.834;8.736;2022-09-21T01:15:02;19.42;;;8.30;;
28483;SDS011;15704;48.834;8.736;2022-09-21T01:18:58;25.83;;;7.45;;
28483;SDS011;15704;48.834;8.736;2022-09-21T01:26:51;7.22;;;4.97;;
28483;SDS011;15704;48.834;8.736;2022-09-21T01:30:50;10.70;;;4.65;;
28483;SDS011;15704;48.834;8.736;2022-09-21T01:34:35;21.95;;;8.15;;
28483;SDS011;15704;48.834;8.736;2022-09-21T01:38:20;40.83;;;15.88;;
28483;SDS011;15704;48.834;8.736;2022-09-21T01:42:07;32.08;;;13.38;;
28483;SDS011;15704;48.834;8.736;2022-09-21T01:45:53;20.55;;;6.47;;
28483;SDS011;15704;48.834;8.736;2022-09-21T01:49:43;11.38;;;3.67;;
28483;SDS011;15704;48.834;8.736;2022-09-21T01:53:29;7.10;;;3.42;;
28483;SDS011;15704;48.834;8.736;2022-09-21T01:57:18;5.20;;;3.28;;
28483;SDS011;15704;48.834;8.736;2022-09-21T02:01:13;5.07;;;2.97;;
28483;SDS011;15704;48.834;8.736;2022-09-21T02:04:59;4.00;;;2.88;;
28483;SDS011;15704;48.834;8.736;2022-09-21T02:08:43;6.53;;;3.40;;
28483;SDS011;15704;48.834;8.736;2022-09-21T02:16:19;7.10;;;2.72;;
28483;SDS011;15704;48.834;8.736;2022-09-21T02:20:14;8.05;;;3.83;;
28483;SDS011;15704;48.834;8.736;2022-09-21T02:24:02;8.77;;;3.85;;
28483;SDS011;15704;48.834;8.736;2022-09-21T02:27:49;5.82;;;3.47;;
28483;SDS011;15704;48.834;8.736;2022-09-21T02:31:40;9.30;;;4.95;;
28483;SDS011;15704;48.834;8.736;2022-09-21T02:35:30;8.05;;;3.88;;
28483;SDS011;15704;48.834;8.736;2022-09-21T02:39:18;8.98;;;4.53;;
28483;SDS011;15704;48.834;8.736;2022-09-21T02:43:10;9.15;;;3.58;;
28483;SDS011;15704;48.834;8.736;2022-09-21T02:47:02;11.38;;;4.18;;
28483;SDS011;15704;48.834;8.736;2022-09-21T02:50:50;15.77;;;4.82;;
28483;SDS011;15704;48.834;8.736;2022-09-21T02:54:38;8.75;;;4.85;;
28483;SDS011;15704;48.834;8.736;2022-09-21T02:58:24;12.75;;;4.35;;
28483;SDS011;15704;48.834;8.736;2022-09-21T03:02:11;17.67;;;3.60;;
28483;SDS011;15704;48.834;8.736;2022-09-21T03:05:54;8.80;;;4.65;;
28483;SDS011;15704;48.834;8.736;2022-09-21T03:09:36;9.63;;;4.13;;
28483;SDS011;15704;48.834;8.736;2022-09-21T03:13:19;8.15;;;4.93;;
28483;SDS011;15704;48.834;8.736;2022-09-21T03:17:02;9.77;;;4.37;;
28483;SDS011;15704;48.834;8.736;2022-09-21T03:20:46;13.67;;;4.20;;
28483;SDS011;15704;48.834;8.736;2022-09-21T03:24:29;9.55;;;4.50;;
28483;SDS011;15704;48.834;8.736;2022-09-21T03:28:26;12.27;;;4.88;;
28483;SDS011;15704;48.834;8.736;2022-09-21T03:32:09;11.87;;;3.97;;
28483;SDS011;15704;48.834;8.736;2022-09-21T03:35:53;10.77;;;4.53;;
28483;SDS011;15704;48.834;8.736;2022-09-21T03:39:36;10.88;;;4.43;;
28483;SDS011;15704;48.834;8.736;2022-09-21T03:43:19;6.57;;;3.92;;
28483;SDS011;15704;48.834;8.736;2022-09-21T03:47:02;12.98;;;4.75;;
28483;SDS011;15704;48.834;8.736;2022-09-21T03:50:46;10.93;;;4.65;;
28483;SDS011;15704;48.834;8.736;2022-09-21T03:54:30;12.55;;;4.18;;
28483;SDS011;15704;48.834;8.736;2022-09-21T03:58:13;17.23;;;4.72;;
28483;SDS011;15704;48.834;8.736;2022-09-21T04:01:55;11.73;;;5.30;;
28483;SDS011;15704;48.834;8.736;2022-09-21T04:05:38;10.27;;;4.40;;
28483;SDS011;15704;48.834;8.736;2022-09-21T04:09:21;22.60;;;5.20;;
28483;SDS011;15704;48.834;8.736;2022-09-21T04:13:05;10.77;;;4.53;;
28483;SDS011;15704;48.834;8.736;2022-09-21T04:16:48;12.30;;;5.13;;
28483;SDS011;15704;48.834;8.736;2022-09-21T04:20:31;8.38;;;4.53;;
28483;SDS011;15704;48.834;8.736;2022-09-21T04:24:14;13.60;;;6.07;;
28483;SDS011;15704;48.834;8.736;2022-09-21T04:27:58;12.75;;;5.95;;
28483;SDS011;15704;48.834;8.736;2022-09-21T04:31:43;14.80;;;5.70;;
28483;SDS011;15704;48.834;8.736;2022-09-21T04:35:25;11.45;;;5.50;;
28483;SDS011;15704;48.834;8.736;2022-09-21T04:39:08;14.95;;;5.78;;
28483;SDS011;15704;48.834;8.736;2022-09-21T04:42:51;7.23;;;4.70;;
28483;SDS011;15704;48.834;8.736;2022-09-21T04:46:33;8.53;;;5.57;;
28483;SDS011;15704;48.834;8.736;2022-09-21T04:50:17;9.32;;;4.75;;
28483;SDS011;15704;48.834;8.736;2022-09-21T04:54:00;11.15;;;5.65;;
28483;SDS011;15704;48.834;8.736;2022-09-21T04:57:46;12.13;;;5.15;;
28483;SDS011;15704;48.834;8.736;2022-09-21T05:01:29;22.67;;;7.40;;
28483;SDS011;15704;48.834;8.736;2022-09-21T05:05:11;17.55;;;5.22;;
28483;SDS011;15704;48.834;8.736;2022-09-21T05:08:55;12.90;;;6.38;;
28483;SDS011;15704;48.834;8.736;2022-09-21T05:12:55;13.18;;;6.07;;
28483;SDS011;15704;48.834;8.736;2022-09-21T05:16:38;19.03;;;6.07;;
28483;SDS011;15704;48.834;8.736;2022-09-21T05:20:21;10.55;;;5.43;;
28483;SDS011;15704;48.834;8.736;2022-09-21T05:24:05;16.27;;;6.03;;
28483;SDS011;15704;48.834;8.736;2022-09-21T05:27:48;12.60;;;5.57;;
28483;SDS011;15704;48.834;8.736;2022-09-21T05:31:36;10.37;;;5.30;;
28483;SDS011;15704;48.834;8.736;2022-09-21T05:35:23;10.57;;;5.20;;
28483;SDS011;15704;48.834;8.736;2022-09-21T05:39:14;16.48;;;5.93;;
28483;SDS011;15704;48.834;8.736;2022-09-21T05:42:57;12.60;;;5.13;;
28483;SDS011;15704;48.834;8.736;2022-09-21T05:46:41;12.68;;;5.38;;
28483;SDS011;15704;48.834;8.736;2022-09-21T05:50:39;20.77;;;7.57;;
28483;SDS011;15704;48.834;8.736;2022-09-21T05:54:36;14.75;;;6.68;;
28483;SDS011;15704;48.834;8.736;2022-09-21T05:58:34;17.30;;;5.72;;
28483;SDS011;15704;48.834;8.736;2022-09-21T06:02:25;15.73;;;6.38;;
28483;SDS011;15704;48.834;8.736;2022-09-21T06:06:22;15.18;;;7.93;;
28483;SDS011;15704;48.834;8.736;2022-09-21T06:10:07;20.73;;;7.77;;
28483;SDS011;15704;48.834;8.736;2022-09-21T06:13:50;14.88;;;7.15;;
28483;SDS011;15704;48.834;8.736;2022-09-21T06:17:33;18.80;;;7.13;;
28483;SDS011;15704;48.834;8.736;2022-09-21T06:21:16;16.65;;;8.93;;
28483;SDS011;15704;48.834;8.736;2022-09-21T06:24:59;14.88;;;6.70;;
28483;SDS011;15704;48.834;8.736;2022-09-21T06:28:43;12.85;;;6.15;;
28483;SDS011;15704;48.834;8.736;2022-09-21T06:32:26;11.98;;;5.60;;
28483;SDS011;15704;48.834;8.736;2022-09-21T06:36:08;10.80;;;5.30;;
28483;SDS011;15704;48.834;8.736;2022-09-21T06:39:51;15.57;;;5.43;;
28483;SDS011;15704;48.834;8.736;2022-09-21T06:43:34;20.10;;;5.47;;
28483;SDS011;15704;48.834;8.736;2022-09-21T06:47:18;19.08;;;6.75;;
28483;SDS011;15704;48.834;8.736;2022-09-21T06:51:01;7.82;;;5.07;;
28483;SDS011;15704;48.834;8.736;2022-09-21T06:54:45;46.50;;;22.15;;
28483;SDS011;15704;48.834;8.736;2022-09-21T06:58:28;12.30;;;4.95;;
28483;SDS011;15704;48.834;8.736;2022-09-21T07:02:14;11.45;;;4.40;;
28483;SDS011;15704;48.834;8.736;2022-09-21T07:05:58;8.95;;;4.40;;
28483;SDS011;15704;48.834;8.736;2022-09-21T07:09:41;6.18;;;3.17;;
28483;SDS011;15704;48.834;8.736;2022-09-21T07:13:44;10.40;;;3.67;;
28483;SDS011;15704;48.834;8.736;2022-09-21T07:17:29;9.73;;;3.70;;
28483;SDS011;15704;48.834;8.736;2022-09-21T07:21:14;8.60;;;3.05;;
28483;SDS011;15704;48.834;8.736;2022-09-21T07:24:57;13.50;;;3.00;;
28483;SDS011;15704;48.834;8.736;2022-09-21T07:28:40;6.65;;;2.60;;
28483;SDS011;15704;48.834;8.736;2022-09-21T07:32:23;6.60;;;2.53;;
28483;SDS011;15704;48.834;8.736;2022-09-21T07:36:06;5.75;;;3.42;;
28483;SDS011;15704;48.834;8.736;2022-09-21T07:39:52;9.88;;;2.60;;
28483;SDS011;15704;48.834;8.736;2022-09-21T07:43:36;6.70;;;2.80;;
28483;SDS011;15704;48.834;8.736;2022-09-21T07:47:20;8.60;;;3.72;;
28483;SDS011;15704;48.834;8.736;2022-09-21T07:51:09;8.88;;;3.80;;
28483;SDS011;15704;48.834;8.736;2022-09-21T07:54:54;12.98;;;4.10;;
28483;SDS011;15704;48.834;8.736;2022-09-21T07:58:37;3.90;;;2.80;;
28483;SDS011;15704;48.834;8.736;2022-09-21T08:02:37;4.07;;;2.75;;
28483;SDS011;15704;48.834;8.736;2022-09-21T08:06:27;6.18;;;2.97;;
28483;SDS011;15704;48.834;8.736;2022-09-21T08:10:17;10.43;;;3.95;;
28483;SDS011;15704;48.834;8.736;2022-09-21T08:14:00;7.05;;;2.50;;
28483;SDS011;15704;48.834;8.736;2022-09-21T08:17:44;12.93;;;3.88;;
28483;SDS011;15704;48.834;8.736;2022-09-21T08:21:27;5.30;;;2.80;;
28483;SDS011;15704;48.834;8.736;2022-09-21T08:25:10;10.07;;;3.10;;
28483;SDS011;15704;48.834;8.736;2022-09-21T08:28:54;15.68;;;3.22;;
28483;SDS011;15704;48.834;8.736;2022-09-21T08:32:39;9.10;;;3.22;;
28483;SDS011;15704;48.834;8.736;2022-09-21T08:36:32;13.53;;;3.70;;
28483;SDS011;15704;48.834;8.736;2022-09-21T08:40:14;7.40;;;2.88;;
28483;SDS011;15704;48.834;8.736;2022-09-21T08:44:02;8.43;;;2.67;;
28483;SDS011;15704;48.834;8.736;2022-09-21T08:47:52;7.05;;;3.05;;
28483;SDS011;15704;48.834;8.736;2022-09-21T08:51:40;8.88;;;3.08;;
28483;SDS011;15704;48.834;8.736;2022-09-21T08:55:31;7.57;;;3.22;;
28483;SDS011;15704;48.834;8.736;2022-09-21T08:59:16;6.15;;;2.60;;
28483;SDS011;15704;48.834;8.736;2022-09-21T09:03:15;11.25;;;2.90;;
28483;SDS011;15704;48.834;8.736;2022-09-21T09:07:10;15.45;;;2.97;;
28483;SDS011;15704;48.834;8.736;2022-09-21T09:11:07;7.35;;;2.80;;
28483;SDS011;15704;48.834;8.736;2022-09-21T09:15:05;12.20;;;3.35;;
28483;SDS011;15704;48.834;8.736;2022-09-21T09:18:58;7.40;;;2.80;;
28483;SDS011;15704;48.834;8.736;2022-09-21T09:22:56;5.63;;;1.90;;
28483;SDS011;15704;48.834;8.736;2022-09-21T09:26:54;4.25;;;1.60;;
28483;SDS011;15704;48.834;8.736;2022-09-21T09:30:46;5.57;;;3.08;;
28483;SDS011;15704;48.834;8.736;2022-09-21T09:34:38;7.18;;;2.70;;
28483;SDS011;15704;48.834;8.736;2022-09-21T09:38:26;4.05;;;1.63;;
28483;SDS011;15704;48.834;8.736;2022-09-21T09:46:16;2.50;;;1.50;;
28483;SDS011;15704;48.834;8.736;2022-09-21T09:50:07;5.32;;;1.50;;
28483;SDS011;15704;48.834;8.736;2022-09-21T09:53:55;8.52;;;1.42;;
28483;SDS011;15704;48.834;8.736;2022-09-21T09:57:41;4.10;;;1.20;;
28483;SDS011;15704;48.834;8.736;2022-09-21T10:05:45;5.20;;;1.70;;
28483;SDS011;15704;48.834;8.736;2022-09-21T10:09:31;10.30;;;1.95;;
28483;SDS011;15704;48.834;8.736;2022-09-21T10:13:15;2.35;;;1.27;;
28483;SDS011;15704;48.834;8.736;2022-09-21T10:17:11;1.75;;;1.00;;
28483;SDS011;15704;48.834;8.736;2022-09-21T10:21:07;7.25;;;1.55;;
28483;SDS011;15704;48.834;8.736;2022-09-21T10:25:01;3.80;;;1.55;;
28483;SDS011;15704;48.834;8.736;2022-09-21T10:28:56;3.00;;;0.95;;
28483;SDS011;15704;48.834;8.736;2022-09-21T10:32:49;4.10;;;1.30;;
28483;SDS011;15704;48.834;8.736;2022-09-21T10:36:47;5.30;;;1.38;;
28483;SDS011;15704;48.834;8.736;2022-09-21T10:40:32;1.88;;;1.10;;
28483;SDS011;15704;48.834;8.736;2022-09-21T10:44:18;6.15;;;1.60;;
28483;SDS011;15704;48.834;8.736;2022-09-21T10:48:08;11.65;;;2.38;;
28483;SDS011;15704;48.834;8.736;2022-09-21T13:18:44;1.88;;;0.93;;
28483;SDS011;15704;48.834;8.736;2022-09-21T13:22:36;1.83;;;1.00;;
28483;SDS011;15704;48.834;8.736;2022-09-21T13:30:17;4.07;;;1.05;;
28483;SDS011;15704;48.834;8.736;2022-09-21T13:34:21;5.97;;;2.30;;
28483;SDS011;15704;48.834;8.736;2022-09-21T13:38:21;8.32;;;2.72;;
28483;SDS011;15704;48.834;8.736;2022-09-21T13:50:37;1.55;;;0.70;;
28483;SDS011;15704;48.834;8.736;2022-09-21T13:54:25;0.77;;;0.50;;
28483;SDS011;15704;48.834;8.736;2022-09-21T13:58:17;1.27;;;0.43;;
28483;SDS011;15704;48.834;8.736;2022-09-21T14:02:08;1.63;;;0.70;;
28483;SDS011;15704;48.834;8.736;2022-09-21T14:06:21;0.82;;;0.60;;
28483;SDS011;15704;48.834;8.736;2022-09-21T14:10:07;2.67;;;0.60;;
28483;SDS011;15704;48.834;8.736;2022-09-21T14:14:00;0.40;;;0.40;;
28483;SDS011;15704;48.834;8.736;2022-09-21T14:18:06;3.90;;;0.70;;
28483;SDS011;15704;48.834;8.736;2022-09-21T14:26:30;1.75;;;0.50;;
28483;SDS011;15704;48.834;8.736;2022-09-21T14:30:17;2.25;;;0.63;;
28483;SDS011;15704;48.834;8.736;2022-09-21T14:34:02;0.50;;;0.47;;
28483;SDS011;15704;48.834;8.736;2022-09-21T14:37:51;2.40;;;1.30;;
28483;SDS011;15704;48.834;8.736;2022-09-21T14:41:39;0.98;;;0.55;;
28483;SDS011;15704;48.834;8.736;2022-09-21T14:45:40;0.68;;;0.50;;
28483;SDS011;15704;48.834;8.736;2022-09-21T14:49:39;1.52;;;0.55;;
28483;SDS011;15704;48.834;8.736;2022-09-21T14:53:52;1.00;;;0.70;;
28483;SDS011;15704;48.834;8.736;2022-09-21T14:57:48;0.52;;;0.50;;
28483;SDS011;15704;48.834;8.736;2022-09-21T15:01:53;1.75;;;0.50;;
28483;SDS011;15704;48.834;8.736;2022-09-21T15:05:40;1.65;;;0.70;;
28483;SDS011;15704;48.834;8.736;2022-09-21T15:09:42;4.63;;;0.80;;
28483;SDS011;15704;48.834;8.736;2022-09-21T15:14:14;0.93;;;0.73;;
28483;SDS011;15704;48.834;8.736;2022-09-21T15:18:11;2.63;;;1.10;;
28483;SDS011;15704;48.834;8.736;2022-09-21T15:22:08;3.22;;;0.80;;
28483;SDS011;15704;48.834;8.736;2022-09-21T15:26:00;2.03;;;0.90;;
28483;SDS011;15704;48.834;8.736;2022-09-21T15:29:47;1.75;;;0.93;;
28483;SDS011;15704;48.834;8.736;2022-09-21T15:33:35;4.38;;;1.20;;
28483;SDS011;15704;48.834;8.736;2022-09-21T15:37:19;2.08;;;1.27;;
28483;SDS011;15704;48.834;8.736;2022-09-21T15:41:03;1.63;;;1.20;;
28483;SDS011;15704;48.834;8.736;2022-09-21T15:44:53;4.57;;;1.75;;
28483;SDS011;15704;48.834;8.736;2022-09-21T15:48:51;2.03;;;1.20;;
28483;SDS011;15704;48.834;8.736;2022-09-21T15:52:40;3.47;;;0.90;;
28483;SDS011;15704;48.834;8.736;2022-09-21T15:56:27;1.83;;;1.10;;
28483;SDS011;15704;48.834;8.736;2022-09-21T16:00:19;1.00;;;0.70;;
28483;SDS011;15704;48.834;8.736;2022-09-21T16:07:47;2.38;;;0.98;;
28483;SDS011;15704;48.834;8.736;2022-09-21T16:11:33;5.47;;;2.03;;
28483;SDS011;15704;48.834;8.736;2022-09-21T16:15:22;2.35;;;1.40;;
28483;SDS011;15704;48.834;8.736;2022-09-21T16:19:08;3.30;;;2.15;;
28483;SDS011;15704;48.834;8.736;2022-09-21T16:30:41;10.63;;;3.08;;
28483;SDS011;15704;48.834;8.736;2022-09-21T16:34:32;7.18;;;1.95;;
28483;SDS011;15704;48.834;8.736;2022-09-21T16:38:16;5.78;;;1.40;;
28483;SDS011;15704;48.834;8.736;2022-09-21T16:42:00;1.50;;;0.80;;
28483;SDS011;15704;48.834;8.736;2022-09-21T16:45:46;2.10;;;0.98;;
28483;SDS011;15704;48.834;8.736;2022-09-21T16:49:30;6.35;;;2.97;;
28483;SDS011;15704;48.834;8.736;2022-09-21T16:53:15;44.05;;;16.77;;
28483;SDS011;15704;48.834;8.736;2022-09-21T16:56:59;26.73;;;11.18;;
28483;SDS011;15704;48.834;8.736;2022-09-21T17:00:43;12.00;;;4.13;;
28483;SDS011;15704;48.834;8.736;2022-09-21T17:04:31;16.50;;;6.78;;
28483;SDS011;15704;48.834;8.736;2022-09-21T17:08:15;6.43;;;3.22;;
28483;SDS011;15704;48.834;8.736;2022-09-21T17:12:01;4.88;;;3.08;;
28483;SDS011;15704;48.834;8.736;2022-09-21T17:15:46;4.68;;;1.23;;
28483;SDS011;15704;48.834;8.736;2022-09-21T17:19:34;5.82;;;1.73;;
28483;SDS011;15704;48.834;8.736;2022-09-21T17:23:17;3.13;;;2.33;;
28483;SDS011;15704;48.834;8.736;2022-09-21T17:30:42;1.73;;;1.45;;
28483;SDS011;15704;48.834;8.736;2022-09-21T17:34:27;1.75;;;0.98;;
28483;SDS011;15704;48.834;8.736;2022-09-21T17:38:13;3.83;;;1.20;;
28483;SDS011;15704;48.834;8.736;2022-09-21T17:41:56;4.47;;;1.90;;
28483;SDS011;15704;48.834;8.736;2022-09-21T17:45:45;14.20;;;8.05;;
28483;SDS011;15704;48.834;8.736;2022-09-21T17:49:33;40.13;;;20.17;;
28483;SDS011;15704;48.834;8.736;2022-09-21T17:53:18;16.95;;;9.07;;
28483;SDS011;15704;48.834;8.736;2022-09-21T17:57:22;12.15;;;6.88;;
28483;SDS011;15704;48.834;8.736;2022-09-21T18:01:25;5.13;;;2.97;;
28483;SDS011;15704;48.834;8.736;2022-09-21T18:05:14;8.70;;;2.53;;
28483;SDS011;15704;48.834;8.736;2022-09-21T18:09:04;8.77;;;2.15;;
28483;SDS011;15704;48.834;8.736;2022-09-21T18:12:59;14.20;;;6.43;;
28483;SDS011;15704;48.834;8.736;2022-09-21T18:16:54;6.20;;;3.13;;
28483;SDS011;15704;48.834;8.736;2022-09-21T18:20:51;9.73;;;4.05;;
28483;SDS011;15704;48.834;8.736;2022-09-21T18:24:44;10.93;;;3.55;;
28483;SDS011;15704;48.834;8.736;2022-09-21T18:28:34;6.72;;;4.22;;
28483;SDS011;15704;48.834;8.736;2022-09-21T18:32:28;4.80;;;2.55;;
28483;SDS011;15704;48.834;8.736;2022-09-21T18:36:21;5.35;;;1.52;;
28483;SDS011;15704;48.834;8.736;2022-09-21T18:40:11;3.35;;;1.90;;
28483;SDS011;15704;48.834;8.736;2022-09-21T18:44:07;4.07;;;1.60;;
28483;SDS011;15704;48.834;8.736;2022-09-21T18:48:01;3.45;;;1.40;;
28483;SDS011;15704;48.834;8.736;2022-09-21T18:51:55;7.40;;;1.55;;
28483;SDS011;15704;48.834;8.736;2022-09-21T18:55:44;2.03;;;1.13;;
28483;SDS011;15704;48.834;8.736;2022-09-21T18:59:27;3.38;;;1.58;;
28483;SDS011;15704;48.834;8.736;2022-09-21T19:03:13;3.47;;;1.50;;
28483;SDS011;15704;48.834;8.736;2022-09-21T19:06:59;1.75;;;1.42;;
28483;SDS011;15704;48.834;8.736;2022-09-21T19:10:53;3.13;;;1.90;;
28483;SDS011;15704;48.834;8.736;2022-09-21T19:14:46;5.30;;;1.42;;
28483;SDS011;15704;48.834;8.736;2022-09-21T19:18:35;2.55;;;1.50;;
28483;SDS011;15704;48.834;8.736;2022-09-21T19:22:28;2.30;;;1.55;;
28483;SDS011;15704;48.834;8.736;2022-09-21T19:26:19;4.00;;;2.22;;
28483;SDS011;15704;48.834;8.736;2022-09-21T19:30:11;3.00;;;1.27;;
28483;SDS011;15704;48.834;8.736;2022-09-21T19:33:55;3.58;;;2.15;;
28483;SDS011;15704;48.834;8.736;2022-09-21T19:37:38;3.10;;;2.22;;
28483;SDS011;15704;48.834;8.736;2022-09-21T19:41:30;5.57;;;3.95;;
28483;SDS011;15704;48.834;8.736;2022-09-21T19:45:20;2.47;;;1.50;;
28483;SDS011;15704;48.834;8.736;2022-09-21T19:49:10;2.53;;;1.50;;
28483;SDS011;15704;48.834;8.736;2022-09-21T19:52:58;6.95;;;1.73;;
28483;SDS011;15704;48.834;8.736;2022-09-21T19:56:59;8.05;;;1.90;;
28483;SDS011;15704;48.834;8.736;2022-09-21T20:01:00;10.65;;;2.63;;
28483;SDS011;15704;48.834;8.736;2022-09-21T20:04:44;2.10;;;1.55;;
28483;SDS011;15704;48.834;8.736;2022-09-21T20:08:32;9.80;;;2.20;;
28483;SDS011;15704;48.834;8.736;2022-09-21T20:12:21;3.17;;;1.83;;
28483;SDS011;15704;48.834;8.736;2022-09-21T20:16:11;2.65;;;1.73;;
28483;SDS011;15704;48.834;8.736;2022-09-21T20:20:07;3.10;;;1.42;;
28483;SDS011;15704;48.834;8.736;2022-09-21T20:23:55;3.45;;;1.83;;
28483;SDS011;15704;48.834;8.736;2022-09-21T20:27:45;2.65;;;1.10;;
28483;SDS011;15704;48.834;8.736;2022-09-21T20:31:30;3.53;;;1.50;;
28483;SDS011;15704;48.834;8.736;2022-09-21T20:35:13;2.33;;;1.43;;
28483;SDS011;15704;48.834;8.736;2022-09-21T20:38:57;1.92;;;1.27;;
28483;SDS011;15704;48.834;8.736;2022-09-21T20:42:40;2.25;;;1.65;;
28483;SDS011;15704;48.834;8.736;2022-09-21T20:46:25;2.65;;;1.42;;
28483;SDS011;15704;48.834;8.736;2022-09-21T20:50:08;3.78;;;2.00;;
28483;SDS011;15704;48.834;8.736;2022-09-21T20:53:53;4.88;;;2.03;;
28483;SDS011;15704;48.834;8.736;2022-09-21T20:57:36;5.45;;;1.48;;
28483;SDS011;15704;48.834;8.736;2022-09-21T21:01:19;3.40;;;1.73;;
28483;SDS011;15704;48.834;8.736;2022-09-21T21:05:05;2.97;;;1.40;;
28483;SDS011;15704;48.834;8.736;2022-09-21T21:08:48;4.05;;;1.80;;
28483;SDS011;15704;48.834;8.736;2022-09-21T21:12:31;3.35;;;1.85;;
28483;SDS011;15704;48.834;8.736;2022-09-21T21:16:14;2.38;;;1.70;;
28483;SDS011;15704;48.834;8.736;2022-09-21T21:19:57;5.82;;;1.98;;
28483;SDS011;15704;48.834;8.736;2022-09-21T21:23:48;3.45;;;1.90;;
28483;SDS011;15704;48.834;8.736;2022-09-21T21:27:48;2.38;;;1.55;;
28483;SDS011;15704;48.834;8.736;2022-09-21T21:31:31;5.38;;;1.70;;
28483;SDS011;15704;48.834;8.736;2022-09-21T21:35:14;2.17;;;1.80;;
28483;SDS011;15704;48.834;8.736;2022-09-21T21:39:01;2.90;;;1.60;;
28483;SDS011;15704;48.834;8.736;2022-09-21T21:42:46;3.50;;;1.80;;
28483;SDS011;15704;48.834;8.736;2022-09-21T21:46:29;2.07;;;1.40;;
28483;SDS011;15704;48.834;8.736;2022-09-21T21:50:12;2.75;;;1.60;;
28483;SDS011;15704;48.834;8.736;2022-09-21T21:53:54;1.73;;;1.27;;
28483;SDS011;15704;48.834;8.736;2022-09-21T21:57:38;7.33;;;1.70;;
28483;SDS011;15704;48.834;8.736;2022-09-21T22:01:21;7.70;;;1.65;;
28483;SDS011;15704;48.834;8.736;2022-09-21T22:05:06;9.00;;;1.77;;
28483;SDS011;15704;48.834;8.736;2022-09-21T22:08:49;3.45;;;1.48;;
28483;SDS011;15704;48.834;8.736;2022-09-21T22:12:32;2.40;;;1.38;;
28483;SDS011;15704;48.834;8.736;2022-09-21T22:16:17;8.63;;;1.70;;
28483;SDS011;15704;48.834;8.736;2022-09-21T22:20:01;4.05;;;1.77;;
28483;SDS011;15704;48.834;8.736;2022-09-21T22:23:44;2.92;;;1.73;;
28483;SDS011;15704;48.834;8.736;2022-09-21T22:27:27;3.17;;;1.42;;
28483;SDS011;15704;48.834;8.736;2022-09-21T22:31:10;6.40;;;1.50;;
28483;SDS011;15704;48.834;8.736;2022-09-21T22:34:55;3.17;;;1.75;;
28483;SDS011;15704;48.834;8.736;2022-09-21T22:52:41;3.85;;;1.85;;
28483;SDS011;15704;48.834;8.736;2022-09-21T22:56:25;2.88;;;1.48;;
28483;SDS011;15704;48.834;8.736;2022-09-21T23:00:09;4.38;;;1.60;;
28483;SDS011;15704;48.834;8.736;2022-09-21T23:03:53;4.25;;;2.05;;
28483;SDS011;15704;48.834;8.736;2022-09-21T23:07:37;2.58;;;1.70;;
28483;SDS011;15704;48.834;8.736;2022-09-21T23:25:40;10.68;;;4.07;;
28483;SDS011;15704;48.834;8.736;2022-09-21T23:29:23;3.70;;;1.77;;
28483;SDS011;15704;48.834;8.736;2022-09-21T23:33:06;3.30;;;1.83;;
28483;SDS011;15704;48.834;8.736;2022-09-21T23:36:49;5.75;;;2.00;;
28483;SDS011;15704;48.834;8.736;2022-09-21T23:40:33;2.47;;;1.70;;
28483;SDS011;15704;48.834;8.736;2022-09-21T23:44:16;3.22;;;1.73;;
28483;SDS011;15704;48.834;8.736;2022-09-21T23:47:59;4.18;;;1.83;;
28483;SDS011;15704;48.834;8.736;2022-09-21T23:51:42;5.55;;;1.90;;
28483;SDS011;15704;48.834;8.736;2022-09-21T23:55:25;2.93;;;2.00;;
28483;SDS011;15704;48.834;8.736;2022-09-21T23:59:09;2.53;;;1.73;;
